createdAt,value
2016-09-10T00:00:44.456Z,1006.31
2016-09-10T00:15:37.857Z,1006.33
2016-09-10T00:30:37.893Z,1006.32
2016-09-10T00:45:37.866Z,1006.41
2016-09-10T01:00:37.873Z,1006.54
2016-09-10T01:15:42.913Z,1006.48
2016-09-10T01:30:37.929Z,1006.38
2016-09-10T01:45:48.797Z,1006.44
2016-09-10T02:00:37.901Z,1006.25
2016-09-10T02:15:37.887Z,1006.05
2016-09-10T02:30:37.970Z,1006.05
2016-09-10T02:45:42.936Z,1005.95
2016-09-10T03:00:49.246Z,1006.06
2016-09-10T03:15:42.940Z,1006
2016-09-10T03:30:37.921Z,1005.95
2016-09-10T03:45:37.933Z,1005.77
2016-09-10T04:00:37.903Z,1005.93
2016-09-10T04:15:46.127Z,1005.92
2016-09-10T04:30:42.887Z,1005.86
2016-09-10T04:45:37.912Z,1005.83
2016-09-10T05:00:37.911Z,1005.91
2016-09-10T05:15:42.957Z,1006.05
2016-09-10T05:30:37.918Z,1006.08
2016-09-10T05:45:48.649Z,1005.89
2016-09-10T06:00:50.349Z,1006
2016-09-10T06:15:42.512Z,1005.91
2016-09-10T06:30:37.923Z,1005.93
2016-09-10T06:45:37.927Z,1005.92
2016-09-10T07:00:38.043Z,1005.92
2016-09-10T07:15:42.140Z,1005.79
2016-09-10T07:30:48.737Z,1005.81
2016-09-10T07:45:48.851Z,1005.91
2016-09-10T08:00:37.966Z,1005.74
2016-09-10T08:15:37.985Z,1005.83
2016-09-10T08:30:37.934Z,1005.82
2016-09-10T08:45:37.950Z,1005.68
2016-09-10T09:00:37.977Z,1005.57
2016-09-10T09:15:48.882Z,1005.54
2016-09-10T09:30:47.205Z,1005.39
2016-09-10T09:45:47.139Z,1005.15
2016-09-10T10:00:42.594Z,1005.01
2016-09-10T10:15:46.286Z,1004.99
2016-09-10T10:30:37.971Z,1004.97
2016-09-10T10:45:37.988Z,1004.85
2016-09-10T11:00:37.990Z,1004.58
2016-09-10T11:15:44.140Z,1004.51
2016-09-10T11:30:37.984Z,1004.37
2016-09-10T11:45:43.022Z,1004.29
2016-09-10T12:00:43.034Z,1004.1
2016-09-10T12:15:43.047Z,1003.92
2016-09-10T12:30:42.937Z,1003.72
2016-09-10T12:45:43.045Z,1003.67
2016-09-10T13:00:38.015Z,1003.6
2016-09-10T13:15:38.000Z,1003.44
2016-09-10T13:30:38.040Z,1003.32
2016-09-10T13:45:38.002Z,1003.23
2016-09-10T14:00:37.996Z,1003.05
2016-09-10T14:15:38.010Z,1003.04
2016-09-10T14:30:42.862Z,1003.03
2016-09-10T14:45:38.013Z,1002.93
2016-09-10T15:00:38.009Z,1002.88
2016-09-10T15:15:42.231Z,1002.88
2016-09-10T15:30:38.051Z,1002.75
2016-09-10T15:45:38.052Z,1002.63
2016-09-10T16:00:43.062Z,1002.48
2016-09-10T16:15:38.021Z,1002.51
2016-09-10T16:30:40.132Z,1002.4
2016-09-10T16:45:38.084Z,1002.41
2016-09-10T17:00:38.035Z,1002.41
2016-09-10T17:15:38.103Z,1002.51
2016-09-10T17:30:38.068Z,1002.45
2016-09-10T17:45:38.069Z,1002.55
2016-09-10T18:00:38.155Z,1002.71
2016-09-10T18:15:38.043Z,1002.66
2016-09-10T18:30:52.758Z,1002.69
2016-09-10T18:45:45.649Z,1002.75
2016-09-10T19:00:44.796Z,1002.82
2016-09-10T19:15:38.050Z,1002.82
2016-09-10T19:30:38.055Z,1002.86
2016-09-10T19:45:38.064Z,1002.91
2016-09-10T20:00:38.099Z,1002.8
2016-09-10T20:15:38.068Z,1002.87
2016-09-10T20:30:44.369Z,1002.89
2016-09-10T20:45:42.272Z,1002.87
2016-09-10T21:00:38.175Z,1002.74
2016-09-10T21:15:38.071Z,1002.79
2016-09-10T21:30:43.104Z,1002.81
2016-09-10T21:45:43.140Z,1002.78
2016-09-10T22:00:38.152Z,1002.75
2016-09-10T22:15:38.062Z,1002.7
2016-09-10T22:30:38.079Z,1002.94
2016-09-10T22:45:43.118Z,1003
2016-09-10T23:00:42.481Z,1002.93
2016-09-10T23:15:43.016Z,1002.94
2016-09-10T23:30:42.704Z,1002.94
2016-09-10T23:45:38.087Z,1003.01
